Highland Home, Alabama
Current Conditions -  °F | °C
As of 3:53 AM on Sunday 21 Dec 2014 (Local Time) from KTOI Reporting Station
Overcast Overcast  
Wind Chill: 52°   Ceiling: 600
Heat Index: 52°   Visibility: 7mi
Dew Point: 49°   Wind: 6mph
Humidity: 89%   Direction: 40°NE
Pressure: 30.13"   Gusts: NA
Location:  31.95°N, 86.31°W
Report Text: KTOI 210953Z AUTO 04005KT 7SM OVC006 11/09 A3013 RMK AO2 SLP203 T01110094
Loading
Personal Weather Stations






























Interactive Weather Map New forecast layout! Learn more

10-Day Weather Forecast

Advertisements
Track Severe Weather on mobile